Somerset, New Jersey
Current Conditions -  °F | °C
As of 7:10 PM on Monday 22 Dec 2014 (Local Time) from KSMQ Reporting Station
Overcast Overcast  
Wind Chill:   Ceiling: 900
Heat Index:   Visibility: 7mi
Dew Point:   Wind: 6mph
Humidity: 85%   Direction: NA
Pressure: 30.2"   Gusts: NA
Location:  40.5°N, 74.52°W
Report Text: KSMQ 230010Z AUTO VRB05KT 7SM OVC009 06/03 A3020 RMK AO2 T00560033
Loading
Personal Weather Stations






























Interactive Weather Map New forecast layout! Learn more

10-Day Weather Forecast

Advertisements
Track Severe Weather on mobile